createdAt,value
2023-04-18T00:03:16.323Z,88.58
2023-04-18T00:07:36.734Z,88.67
2023-04-18T00:11:54.666Z,88.89
2023-04-18T00:16:13.498Z,89.07
2023-04-18T00:20:31.148Z,89.19
2023-04-18T00:24:50.260Z,89.30
2023-04-18T00:29:08.176Z,89.28
2023-04-18T00:33:25.901Z,89.08
2023-04-18T00:37:43.672Z,89.04
2023-04-18T00:42:02.833Z,88.90
2023-04-18T00:46:21.034Z,88.87
2023-04-18T00:50:38.774Z,88.79
2023-04-18T00:54:56.972Z,88.64
2023-04-18T00:59:14.833Z,88.57
2023-04-18T01:03:33.197Z,88.55
2023-04-18T01:07:52.404Z,88.58
2023-04-18T01:12:09.982Z,88.63
2023-04-18T01:16:33.158Z,88.55
2023-04-18T01:20:53.295Z,88.47
2023-04-18T01:25:11.530Z,88.47
2023-04-18T01:29:29.370Z,88.49
2023-04-18T01:33:48.408Z,88.50
2023-04-18T01:38:05.938Z,88.38
2023-04-18T01:42:23.572Z,88.38
2023-04-18T01:46:41.205Z,88.42
2023-04-18T01:50:58.936Z,88.68
2023-04-18T01:55:16.700Z,88.73
2023-04-18T01:59:34.503Z,88.89
2023-04-18T02:03:52.324Z,88.86
2023-04-18T02:08:12.091Z,88.94
2023-04-18T02:12:29.597Z,89.28
2023-04-18T02:16:47.370Z,89.32
2023-04-18T02:21:05.147Z,89.30
2023-04-18T02:25:25.321Z,89.41
2023-04-18T02:29:42.811Z,89.42
2023-04-18T02:34:00.462Z,89.57
2023-04-18T02:38:18.001Z,89.79
2023-04-18T02:42:35.780Z,89.78
2023-04-18T02:46:53.301Z,89.47
2023-04-18T02:51:11.265Z,89.12
2023-04-18T02:55:28.855Z,88.71
2023-04-18T02:59:46.702Z,88.37
2023-04-18T03:04:04.353Z,88.21
2023-04-18T03:08:22.053Z,87.84
2023-04-18T03:12:39.657Z,87.82
2023-04-18T03:16:57.361Z,87.97
2023-04-18T03:21:15.093Z,88.11
2023-04-18T03:25:32.866Z,88.09
2023-04-18T03:29:50.372Z,88.22
2023-04-18T03:34:08.059Z,88.10
2023-04-18T03:38:25.557Z,88.06
2023-04-18T03:42:43.642Z,87.74
2023-04-18T03:47:01.198Z,87.42
2023-04-18T03:51:19.158Z,87.37
2023-04-18T03:55:36.444Z,87.33
2023-04-18T03:59:54.529Z,87.08
2023-04-18T04:04:14.293Z,86.94
2023-04-18T04:08:32.302Z,86.84
2023-04-18T04:12:49.906Z,86.87
2023-04-18T04:17:07.644Z,86.68
2023-04-18T04:21:25.190Z,85.90
2023-04-18T04:25:43.310Z,85.35
2023-04-18T04:30:01.000Z,84.84
2023-04-18T04:34:18.622Z,84.61
2023-04-18T04:38:38.620Z,84.47
2023-04-18T04:42:56.593Z,83.87
2023-04-18T04:47:14.103Z,83.04
2023-04-18T04:51:32.037Z,82.56
2023-04-18T04:55:49.684Z,82.60
2023-04-18T05:00:08.945Z,82.47
2023-04-18T05:04:26.660Z,81.20
2023-04-18T05:08:44.455Z,80.24
2023-04-18T05:13:01.968Z,79.88
2023-04-18T05:17:19.680Z,79.13
2023-04-18T05:21:37.313Z,78.86
2023-04-18T05:25:55.179Z,78.62
2023-04-18T05:30:12.926Z,78.89
2023-04-18T05:34:31.179Z,78.79
2023-04-18T05:38:48.806Z,79.31
2023-04-18T05:43:06.525Z,78.78
2023-04-18T05:47:27.181Z,78.10
2023-04-18T05:51:44.994Z,78.20
2023-04-18T05:56:03.014Z,78.76
2023-04-18T06:00:20.383Z,78.43
2023-04-18T06:04:38.356Z,79.08
2023-04-18T06:08:55.879Z,78.60
2023-04-18T06:13:13.576Z,78.68
2023-04-18T06:17:31.240Z,76.27
2023-04-18T06:21:49.573Z,75.32
2023-04-18T06:26:07.574Z,74.38
2023-04-18T06:30:25.993Z,73.64
2023-04-18T06:34:44.965Z,73.06
2023-04-18T06:39:02.873Z,72.35
2023-04-18T06:43:22.174Z,71.07
2023-04-18T06:47:41.129Z,71.15
2023-04-18T06:51:58.880Z,70.02
2023-04-18T06:56:16.836Z,71.01
2023-04-18T07:00:34.418Z,70.92
2023-04-18T07:04:52.118Z,70.23
2023-04-18T07:09:09.668Z,71.12
2023-04-18T07:13:27.353Z,71.21
2023-04-18T07:17:44.863Z,71.34
2023-04-18T07:22:02.589Z,69.23
2023-04-18T07:26:20.578Z,65.06
2023-04-18T07:30:38.317Z,64.48
2023-04-18T07:34:57.540Z,62.95
2023-04-18T07:39:15.558Z,63.98
2023-04-18T07:43:33.030Z,64.15
2023-04-18T07:47:51.255Z,64.76
2023-04-18T07:52:08.780Z,64.06
2023-04-18T07:56:27.955Z,61.37
2023-04-18T08:00:45.492Z,63.73
2023-04-18T08:05:03.400Z,62.28
2023-04-18T08:09:21.982Z,61.32
2023-04-18T08:13:39.868Z,59.74
2023-04-18T08:17:57.446Z,60.44
2023-04-18T08:22:14.665Z,60.46
2023-04-18T08:26:32.183Z,60.56
2023-04-18T08:30:50.680Z,59.62
2023-04-18T08:35:08.123Z,55.13
2023-04-18T08:39:25.918Z,58.47
2023-04-18T08:43:49.145Z,56.95
2023-04-18T08:48:08.101Z,56.30
2023-04-18T08:52:28.570Z,57.10
2023-04-18T08:56:46.467Z,57.13
2023-04-18T09:01:04.052Z,57.83
2023-04-18T09:05:23.043Z,51.46
2023-04-18T09:09:50.673Z,52.23
2023-04-18T09:14:08.349Z,53.49
2023-04-18T09:18:25.901Z,51.74
2023-04-18T09:22:54.791Z,47.08
2023-04-18T09:27:15.916Z,48.65
2023-04-18T09:31:34.224Z,51.11
2023-04-18T09:35:52.139Z,48.89
2023-04-18T09:40:19.903Z,51.49
2023-04-18T09:44:38.812Z,51.84
2023-04-18T09:48:56.536Z,47.09
2023-04-18T09:53:20.662Z,44.05
2023-04-18T09:57:48.392Z,44.23
2023-04-18T10:02:08.352Z,42.58
2023-04-18T10:06:29.195Z,40.39
2023-04-18T10:10:46.787Z,39.98
2023-04-18T10:15:07.030Z,42.77
2023-04-18T10:19:26.875Z,43.34
2023-04-18T10:23:46.335Z,40.05
2023-04-18T10:28:07.775Z,43.80
2023-04-18T10:32:25.534Z,40.89
2023-04-18T10:37:06.534Z,39.16
2023-04-18T10:41:34.598Z,39.40
2023-04-18T10:46:20.436Z,38.25
2023-04-18T10:51:22.375Z,36.53
2023-04-18T10:55:45.003Z,36.10
2023-04-18T11:00:08.794Z,37.84
2023-04-18T11:04:26.594Z,38.70
2023-04-18T11:08:44.628Z,36.56
2023-04-18T11:13:06.917Z,31.19
2023-04-18T11:17:27.014Z,28.92
2023-04-18T11:21:44.792Z,31.71
2023-04-18T11:26:03.653Z,30.39
2023-04-18T11:30:21.893Z,30.65
2023-04-18T11:34:39.646Z,29.20
2023-04-18T11:38:57.207Z,25.84
2023-04-18T11:43:21.965Z,25.89
2023-04-18T11:47:40.253Z,24.51
2023-04-18T11:52:01.942Z,23.57
2023-04-18T11:56:19.511Z,24.17
2023-04-18T12:00:39.933Z,24.27
2023-04-18T12:05:00.417Z,28.61
2023-04-18T12:09:19.745Z,28.67
2023-04-18T12:13:37.420Z,24.70
2023-04-18T12:18:01.216Z,27.29
2023-04-18T12:22:19.178Z,24.62
2023-04-18T12:26:45.949Z,24.62
2023-04-18T12:31:09.048Z,21.49
2023-04-18T12:35:27.326Z,23.34
2023-04-18T12:39:45.107Z,24.77
2023-04-18T12:44:02.761Z,28.79
2023-04-18T12:48:20.658Z,30.56
2023-04-18T12:52:40.971Z,28.47
2023-04-18T12:56:58.751Z,32.20
2023-04-18T13:01:17.328Z,32.92
2023-04-18T13:05:35.139Z,30.62
2023-04-18T13:09:52.698Z,30.83
2023-04-18T13:14:10.223Z,30.78
2023-04-18T13:18:27.892Z,30.14
2023-04-18T13:22:45.672Z,30.36
2023-04-18T13:27:10.418Z,31.14
2023-04-18T13:31:29.214Z,33.15
2023-04-18T13:35:47.192Z,30.97
2023-04-18T13:40:06.907Z,30.90
2023-04-18T13:44:25.422Z,33.53
2023-04-18T13:48:43.107Z,32.82
2023-04-18T13:53:00.826Z,33.64
2023-04-18T13:57:18.536Z,35.77
2023-04-18T14:01:36.103Z,35.86
2023-04-18T14:05:53.803Z,40.62
2023-04-18T14:10:11.703Z,44.69
2023-04-18T14:14:29.963Z,44.62
2023-04-18T14:18:47.799Z,45.63
2023-04-18T14:23:05.384Z,46.51
2023-04-18T14:27:23.359Z,45.66
2023-04-18T14:31:41.197Z,43.04
2023-04-18T14:35:58.791Z,35.22
2023-04-18T14:40:17.086Z,30.45
2023-04-18T14:44:34.873Z,34.96
2023-04-18T14:48:52.300Z,34.91
2023-04-18T14:53:11.470Z,41.47
2023-04-18T14:57:31.934Z,47.05
2023-04-18T15:01:49.784Z,49.26
2023-04-18T15:06:07.778Z,50.38
2023-04-18T15:10:26.675Z,50.11
2023-04-18T15:14:44.322Z,48.94
2023-04-18T15:19:02.419Z,49.72
2023-04-18T15:23:20.043Z,51.63
2023-04-18T15:27:37.786Z,51.44
2023-04-18T15:31:55.552Z,52.41
2023-04-18T15:36:13.219Z,52.99
2023-04-18T15:40:33.095Z,52.74
2023-04-18T15:44:50.967Z,53.36
2023-04-18T15:49:08.475Z,54.22
2023-04-18T15:53:26.351Z,54.96
2023-04-18T15:57:43.757Z,58.25
2023-04-18T16:02:01.855Z,59.00
2023-04-18T16:06:22.430Z,59.13
2023-04-18T16:10:40.209Z,59.58
2023-04-18T16:14:57.797Z,60.30
2023-04-18T16:19:18.091Z,60.72
2023-04-18T16:23:35.852Z,62.01
2023-04-18T16:27:53.621Z,62.97
2023-04-18T16:32:11.355Z,63.98
2023-04-18T16:36:29.390Z,64.24
2023-04-18T16:40:46.804Z,64.87
2023-04-18T16:45:05.137Z,65.13
2023-04-18T16:49:24.127Z,65.61
2023-04-18T16:53:42.034Z,66.18
2023-04-18T16:57:59.548Z,66.86
2023-04-18T17:02:17.545Z,67.12
2023-04-18T17:06:35.595Z,67.87
2023-04-18T17:10:54.052Z,68.20
2023-04-18T17:15:12.111Z,68.78
2023-04-18T17:19:29.786Z,69.06
2023-04-18T17:23:47.694Z,69.40
2023-04-18T17:28:05.561Z,69.77
2023-04-18T17:32:23.902Z,70.55
2023-04-18T17:36:41.770Z,70.91
2023-04-18T17:41:04.820Z,70.91
2023-04-18T17:45:22.664Z,71.26
2023-04-18T17:49:40.254Z,71.46
2023-04-18T17:53:57.935Z,71.11
2023-04-18T17:58:16.903Z,71.40
2023-04-18T18:02:34.852Z,71.60
2023-04-18T18:06:57.550Z,71.36
2023-04-18T18:11:14.930Z,71.40
2023-04-18T18:15:33.134Z,71.72
2023-04-18T18:19:51.240Z,71.98
2023-04-18T18:24:09.804Z,71.95
2023-04-18T18:28:27.849Z,72.09
2023-04-18T18:32:45.493Z,72.55
2023-04-18T18:37:03.238Z,72.21
2023-04-18T18:41:22.870Z,72.31
2023-04-18T18:45:40.572Z,72.11
2023-04-18T18:49:58.582Z,72.52
2023-04-18T18:54:16.532Z,72.79
2023-04-18T18:58:34.204Z,72.98
2023-04-18T19:02:52.728Z,73.29
2023-04-18T19:07:10.767Z,73.56
2023-04-18T19:11:28.849Z,73.79
2023-04-18T19:15:46.634Z,73.96
2023-04-18T19:20:04.769Z,74.36
2023-04-18T19:24:23.727Z,75.02
2023-04-18T19:28:41.723Z,76.03
2023-04-18T19:32:59.525Z,76.67
2023-04-18T19:37:17.191Z,76.83
2023-04-18T19:41:34.903Z,77.20
2023-04-18T19:45:54.991Z,77.14
2023-04-18T19:50:13.036Z,77.29
2023-04-18T19:54:33.714Z,77.33
2023-04-18T19:58:51.396Z,77.50
2023-04-18T20:03:09.184Z,77.80
2023-04-18T20:07:27.215Z,78.09
2023-04-18T20:11:44.890Z,78.01
2023-04-18T20:16:04.130Z,78.12
2023-04-18T20:20:21.832Z,78.60
2023-04-18T20:24:39.587Z,78.73
2023-04-18T20:28:57.424Z,79.01
2023-04-18T20:33:14.930Z,79.33
2023-04-18T20:37:37.131Z,79.51
2023-04-18T20:41:57.933Z,79.76
2023-04-18T20:46:16.501Z,79.97
2023-04-18T20:50:34.238Z,79.86
2023-04-18T20:54:52.081Z,79.93
2023-04-18T20:59:09.721Z,79.94
2023-04-18T21:03:27.664Z,80.20
2023-04-18T21:07:45.955Z,79.94
2023-04-18T21:12:06.490Z,79.90
2023-04-18T21:16:24.458Z,78.57
2023-04-18T21:20:41.938Z,77.27
2023-04-18T21:24:59.456Z,78.09
2023-04-18T21:29:17.276Z,77.59
2023-04-18T21:33:34.799Z,77.58
2023-04-18T21:37:52.806Z,78.63
2023-04-18T21:42:11.115Z,78.88
2023-04-18T21:46:28.761Z,79.59
2023-04-18T21:50:46.298Z,79.89
2023-04-18T21:55:05.248Z,80.43
2023-04-18T21:59:22.901Z,81.32
2023-04-18T22:03:40.934Z,82.29
2023-04-18T22:07:58.877Z,82.96
2023-04-18T22:12:16.971Z,83.48
2023-04-18T22:16:34.681Z,84.30
2023-04-18T22:20:53.924Z,84.88
2023-04-18T22:25:14.177Z,85.34
2023-04-18T22:29:31.928Z,85.93
2023-04-18T22:33:50.076Z,86.35
2023-04-18T22:38:08.014Z,86.44
2023-04-18T22:42:25.648Z,86.47
2023-04-18T22:46:43.560Z,86.84
2023-04-18T22:51:02.099Z,87.09
2023-04-18T22:55:20.532Z,87.38
2023-04-18T22:59:38.153Z,87.65
2023-04-18T23:03:56.746Z,87.87
2023-04-18T23:08:14.610Z,87.82
2023-04-18T23:12:32.126Z,87.82
2023-04-18T23:16:49.787Z,87.94
2023-04-18T23:21:07.504Z,88.05
2023-04-18T23:25:25.446Z,88.19
2023-04-18T23:29:42.863Z,88.25
2023-04-18T23:34:00.625Z,88.22
2023-04-18T23:38:18.280Z,88.19
2023-04-18T23:42:36.293Z,88.16
2023-04-18T23:46:53.722Z,88.06
2023-04-18T23:51:11.635Z,88.12
2023-04-18T23:55:29.211Z,88.31
2023-04-18T23:59:46.828Z,88.38
